sensor_id;sensor_type;location;lat;lon;timestamp;P1;durP1;ratioP1;P2;durP2;ratioP2
41061;SDS011;26812;42.662;23.352;2023-02-11T00:01:35;14.02;;;10.50;;
41061;SDS011;26812;42.662;23.352;2023-02-11T00:04:01;20.45;;;11.32;;
41061;SDS011;26812;42.662;23.352;2023-02-11T00:06:28;13.23;;;9.70;;
41061;SDS011;26812;42.662;23.352;2023-02-11T00:08:55;14.43;;;9.90;;
41061;SDS011;26812;42.662;23.352;2023-02-11T00:11:22;19.65;;;11.20;;
41061;SDS011;26812;42.662;23.352;2023-02-11T00:13:50;12.82;;;9.77;;
41061;SDS011;26812;42.662;23.352;2023-02-11T00:16:17;16.70;;;10.65;;
41061;SDS011;26812;42.662;23.352;2023-02-11T00:18:44;17.73;;;10.60;;
41061;SDS011;26812;42.662;23.352;2023-02-11T00:21:16;18.30;;;11.05;;
41061;SDS011;26812;42.662;23.352;2023-02-11T00:23:44;14.43;;;10.52;;
41061;SDS011;26812;42.662;23.352;2023-02-11T00:26:17;17.75;;;10.10;;
41061;SDS011;26812;42.662;23.352;2023-02-11T00:28:45;14.07;;;10.88;;
41061;SDS011;26812;42.662;23.352;2023-02-11T00:31:11;16.63;;;10.63;;
41061;SDS011;26812;42.662;23.352;2023-02-11T00:33:38;13.05;;;10.40;;
41061;SDS011;26812;42.662;23.352;2023-02-11T00:36:07;16.88;;;10.25;;
41061;SDS011;26812;42.662;23.352;2023-02-11T00:38:38;14.80;;;9.85;;
41061;SDS011;26812;42.662;23.352;2023-02-11T00:41:03;19.73;;;9.80;;
41061;SDS011;26812;42.662;23.352;2023-02-11T00:43:29;15.60;;;10.20;;
41061;SDS011;26812;42.662;23.352;2023-02-11T00:45:54;19.05;;;11.35;;
41061;SDS011;26812;42.662;23.352;2023-02-11T00:48:20;13.90;;;9.50;;
41061;SDS011;26812;42.662;23.352;2023-02-11T00:50:45;14.60;;;10.30;;
41061;SDS011;26812;42.662;23.352;2023-02-11T00:53:11;12.02;;;10.05;;
41061;SDS011;26812;42.662;23.352;2023-02-11T00:55:36;14.27;;;10.30;;
41061;SDS011;26812;42.662;23.352;2023-02-11T00:58:01;16.42;;;11.40;;
41061;SDS011;26812;42.662;23.352;2023-02-11T01:00:27;14.07;;;8.88;;
41061;SDS011;26812;42.662;23.352;2023-02-11T01:02:53;15.70;;;10.25;;
41061;SDS011;26812;42.662;23.352;2023-02-11T01:05:19;14.10;;;10.27;;
41061;SDS011;26812;42.662;23.352;2023-02-11T01:07:45;18.20;;;11.05;;
41061;SDS011;26812;42.662;23.352;2023-02-11T01:10:10;16.40;;;11.20;;
41061;SDS011;26812;42.662;23.352;2023-02-11T01:12:36;14.82;;;9.70;;
41061;SDS011;26812;42.662;23.352;2023-02-11T01:15:02;15.57;;;10.32;;
41061;SDS011;26812;42.662;23.352;2023-02-11T01:17:29;11.40;;;9.38;;
41061;SDS011;26812;42.662;23.352;2023-02-11T01:19:54;14.95;;;10.23;;
41061;SDS011;26812;42.662;23.352;2023-02-11T01:22:19;14.93;;;9.25;;
41061;SDS011;26812;42.662;23.352;2023-02-11T01:24:45;12.25;;;9.63;;
41061;SDS011;26812;42.662;23.352;2023-02-11T01:27:10;15.43;;;10.13;;
41061;SDS011;26812;42.662;23.352;2023-02-11T01:29:36;10.65;;;9.45;;
41061;SDS011;26812;42.662;23.352;2023-02-11T01:32:01;16.33;;;10.57;;
41061;SDS011;26812;42.662;23.352;2023-02-11T01:34:27;16.08;;;10.88;;
41061;SDS011;26812;42.662;23.352;2023-02-11T01:36:57;19.13;;;10.82;;
41061;SDS011;26812;42.662;23.352;2023-02-11T01:39:23;17.20;;;10.73;;
41061;SDS011;26812;42.662;23.352;2023-02-11T01:41:49;17.95;;;10.50;;
41061;SDS011;26812;42.662;23.352;2023-02-11T01:44:21;12.98;;;9.40;;
41061;SDS011;26812;42.662;23.352;2023-02-11T01:46:49;12.85;;;9.60;;
41061;SDS011;26812;42.662;23.352;2023-02-11T01:49:16;17.05;;;9.70;;
41061;SDS011;26812;42.662;23.352;2023-02-11T01:51:46;14.18;;;10.48;;
41061;SDS011;26812;42.662;23.352;2023-02-11T01:54:16;14.85;;;9.93;;
41061;SDS011;26812;42.662;23.352;2023-02-11T01:57:03;11.88;;;9.80;;
41061;SDS011;26812;42.662;23.352;2023-02-11T02:02:43;15.30;;;11.13;;
41061;SDS011;26812;42.662;23.352;2023-02-11T02:10:47;14.38;;;9.82;;
41061;SDS011;26812;42.662;23.352;2023-02-11T02:13:18;21.15;;;12.25;;
41061;SDS011;26812;42.662;23.352;2023-02-11T02:15:53;16.65;;;11.45;;
41061;SDS011;26812;42.662;23.352;2023-02-11T02:37:17;18.00;;;10.52;;
41061;SDS011;26812;42.662;23.352;2023-02-11T02:39:51;15.50;;;10.35;;
41061;SDS011;26812;42.662;23.352;2023-02-11T02:42:17;13.30;;;9.90;;
41061;SDS011;26812;42.662;23.352;2023-02-11T02:44:48;17.13;;;10.88;;
41061;SDS011;26812;42.662;23.352;2023-02-11T02:47:14;12.15;;;10.93;;
41061;SDS011;26812;42.662;23.352;2023-02-11T02:49:40;12.40;;;10.73;;
41061;SDS011;26812;42.662;23.352;2023-02-11T02:52:24;16.48;;;11.45;;
41061;SDS011;26812;42.662;23.352;2023-02-11T02:55:06;15.25;;;10.18;;
41061;SDS011;26812;42.662;23.352;2023-02-11T03:03:40;18.30;;;10.38;;
41061;SDS011;26812;42.662;23.352;2023-02-11T03:09:05;15.25;;;10.05;;
41061;SDS011;26812;42.662;23.352;2023-02-11T03:11:36;14.23;;;10.63;;
41061;SDS011;26812;42.662;23.352;2023-02-11T03:14:02;18.73;;;9.98;;
41061;SDS011;26812;42.662;23.352;2023-02-11T03:16:38;14.75;;;9.77;;
41061;SDS011;26812;42.662;23.352;2023-02-11T03:19:37;15.80;;;10.15;;
41061;SDS011;26812;42.662;23.352;2023-02-11T03:21:59;16.00;;;10.40;;
41061;SDS011;26812;42.662;23.352;2023-02-11T03:24:30;18.23;;;10.50;;
41061;SDS011;26812;42.662;23.352;2023-02-11T03:27:02;15.70;;;10.27;;
41061;SDS011;26812;42.662;23.352;2023-02-11T03:29:54;15.50;;;10.93;;
41061;SDS011;26812;42.662;23.352;2023-02-11T03:32:35;15.85;;;10.38;;
41061;SDS011;26812;42.662;23.352;2023-02-11T03:35:11;13.10;;;10.45;;
41061;SDS011;26812;42.662;23.352;2023-02-11T03:37:44;18.17;;;12.05;;
41061;SDS011;26812;42.662;23.352;2023-02-11T03:40:18;18.95;;;10.23;;
41061;SDS011;26812;42.662;23.352;2023-02-11T03:42:49;14.75;;;10.43;;
41061;SDS011;26812;42.662;23.352;2023-02-11T03:45:18;15.90;;;10.52;;
41061;SDS011;26812;42.662;23.352;2023-02-11T03:47:48;18.65;;;11.55;;
41061;SDS011;26812;42.662;23.352;2023-02-11T03:50:18;14.02;;;11.55;;
41061;SDS011;26812;42.662;23.352;2023-02-11T03:52:45;19.60;;;12.05;;
41061;SDS011;26812;42.662;23.352;2023-02-11T03:55:14;19.52;;;12.30;;
41061;SDS011;26812;42.662;23.352;2023-02-11T03:57:42;14.15;;;10.60;;
41061;SDS011;26812;42.662;23.352;2023-02-11T04:00:08;18.38;;;10.73;;
41061;SDS011;26812;42.662;23.352;2023-02-11T04:02:35;18.75;;;11.25;;
41061;SDS011;26812;42.662;23.352;2023-02-11T04:05:05;14.88;;;10.77;;
41061;SDS011;26812;42.662;23.352;2023-02-11T04:07:31;17.75;;;10.63;;
41061;SDS011;26812;42.662;23.352;2023-02-11T04:09:57;19.30;;;10.70;;
41061;SDS011;26812;42.662;23.352;2023-02-11T04:12:23;16.33;;;11.90;;
41061;SDS011;26812;42.662;23.352;2023-02-11T04:14:48;17.83;;;11.32;;
41061;SDS011;26812;42.662;23.352;2023-02-11T04:17:14;18.42;;;11.75;;
41061;SDS011;26812;42.662;23.352;2023-02-11T04:19:40;14.77;;;11.20;;
41061;SDS011;26812;42.662;23.352;2023-02-11T04:22:05;14.52;;;10.55;;
41061;SDS011;26812;42.662;23.352;2023-02-11T04:24:31;15.20;;;10.93;;
41061;SDS011;26812;42.662;23.352;2023-02-11T04:26:57;15.90;;;10.38;;
41061;SDS011;26812;42.662;23.352;2023-02-11T04:29:22;14.25;;;10.60;;
41061;SDS011;26812;42.662;23.352;2023-02-11T04:31:48;18.38;;;11.65;;
41061;SDS011;26812;42.662;23.352;2023-02-11T04:34:20;19.13;;;12.00;;
41061;SDS011;26812;42.662;23.352;2023-02-11T04:36:45;19.58;;;11.75;;
41061;SDS011;26812;42.662;23.352;2023-02-11T04:39:11;19.95;;;12.45;;
41061;SDS011;26812;42.662;23.352;2023-02-11T04:41:36;17.98;;;11.80;;
41061;SDS011;26812;42.662;23.352;2023-02-11T04:44:02;19.10;;;12.75;;
41061;SDS011;26812;42.662;23.352;2023-02-11T04:46:27;28.20;;;14.30;;
41061;SDS011;26812;42.662;23.352;2023-02-11T04:48:53;25.48;;;15.55;;
41061;SDS011;26812;42.662;23.352;2023-02-11T04:51:18;19.27;;;13.88;;
41061;SDS011;26812;42.662;23.352;2023-02-11T04:53:44;20.13;;;14.02;;
41061;SDS011;26812;42.662;23.352;2023-02-11T04:56:09;20.67;;;14.73;;
41061;SDS011;26812;42.662;23.352;2023-02-11T04:58:35;22.48;;;16.33;;
41061;SDS011;26812;42.662;23.352;2023-02-11T05:01:04;21.55;;;15.45;;
41061;SDS011;26812;42.662;23.352;2023-02-11T05:03:37;30.10;;;15.23;;
41061;SDS011;26812;42.662;23.352;2023-02-11T05:06:03;24.33;;;15.60;;
41061;SDS011;26812;42.662;23.352;2023-02-11T05:08:29;20.23;;;14.38;;
41061;SDS011;26812;42.662;23.352;2023-02-11T05:10:55;24.23;;;16.50;;
41061;SDS011;26812;42.662;23.352;2023-02-11T05:13:20;21.90;;;14.60;;
41061;SDS011;26812;42.662;23.352;2023-02-11T05:15:46;22.23;;;15.48;;
41061;SDS011;26812;42.662;23.352;2023-02-11T05:18:11;21.73;;;14.43;;
41061;SDS011;26812;42.662;23.352;2023-02-11T05:20:38;25.30;;;15.45;;
41061;SDS011;26812;42.662;23.352;2023-02-11T05:23:07;23.00;;;14.18;;
41061;SDS011;26812;42.662;23.352;2023-02-11T05:25:33;27.48;;;17.70;;
41061;SDS011;26812;42.662;23.352;2023-02-11T05:27:58;26.90;;;15.90;;
41061;SDS011;26812;42.662;23.352;2023-02-11T05:30:24;21.20;;;15.95;;
41061;SDS011;26812;42.662;23.352;2023-02-11T05:32:49;26.58;;;15.80;;
41061;SDS011;26812;42.662;23.352;2023-02-11T05:35:15;29.58;;;17.27;;
41061;SDS011;26812;42.662;23.352;2023-02-11T05:37:41;25.13;;;16.63;;
41061;SDS011;26812;42.662;23.352;2023-02-11T05:40:07;23.05;;;15.93;;
41061;SDS011;26812;42.662;23.352;2023-02-11T05:42:33;25.67;;;16.42;;
41061;SDS011;26812;42.662;23.352;2023-02-11T05:44:59;21.15;;;17.05;;
41061;SDS011;26812;42.662;23.352;2023-02-11T05:47:24;25.65;;;17.27;;
41061;SDS011;26812;42.662;23.352;2023-02-11T05:49:50;23.92;;;15.35;;
41061;SDS011;26812;42.662;23.352;2023-02-11T05:52:15;30.88;;;16.70;;
41061;SDS011;26812;42.662;23.352;2023-02-11T05:54:41;23.45;;;17.48;;
41061;SDS011;26812;42.662;23.352;2023-02-11T05:57:06;24.40;;;16.30;;
41061;SDS011;26812;42.662;23.352;2023-02-11T05:59:32;29.75;;;15.50;;
41061;SDS011;26812;42.662;23.352;2023-02-11T06:02:00;24.30;;;16.77;;
41061;SDS011;26812;42.662;23.352;2023-02-11T06:04:26;30.77;;;17.52;;
41061;SDS011;26812;42.662;23.352;2023-02-11T06:06:51;21.75;;;14.90;;
41061;SDS011;26812;42.662;23.352;2023-02-11T06:09:16;20.00;;;14.18;;
41061;SDS011;26812;42.662;23.352;2023-02-11T06:11:42;23.67;;;15.35;;
41061;SDS011;26812;42.662;23.352;2023-02-11T06:14:07;22.88;;;13.07;;
41061;SDS011;26812;42.662;23.352;2023-02-11T06:16:33;22.13;;;14.20;;
41061;SDS011;26812;42.662;23.352;2023-02-11T06:18:59;25.75;;;15.82;;
41061;SDS011;26812;42.662;23.352;2023-02-11T06:21:24;21.65;;;15.05;;
41061;SDS011;26812;42.662;23.352;2023-02-11T06:23:49;22.15;;;15.18;;
41061;SDS011;26812;42.662;23.352;2023-02-11T06:26:16;19.92;;;13.95;;
41061;SDS011;26812;42.662;23.352;2023-02-11T06:28:44;25.95;;;17.30;;
41061;SDS011;26812;42.662;23.352;2023-02-11T06:31:10;28.85;;;16.42;;
41061;SDS011;26812;42.662;23.352;2023-02-11T06:33:36;29.67;;;15.13;;
41061;SDS011;26812;42.662;23.352;2023-02-11T06:36:02;23.90;;;15.68;;
41061;SDS011;26812;42.662;23.352;2023-02-11T06:38:29;24.80;;;15.25;;
41061;SDS011;26812;42.662;23.352;2023-02-11T06:40:55;26.13;;;16.83;;
41061;SDS011;26812;42.662;23.352;2023-02-11T06:43:20;27.27;;;16.50;;
41061;SDS011;26812;42.662;23.352;2023-02-11T06:45:51;26.70;;;16.40;;
41061;SDS011;26812;42.662;23.352;2023-02-11T06:48:18;25.75;;;16.02;;
41061;SDS011;26812;42.662;23.352;2023-02-11T06:50:44;23.95;;;15.63;;
41061;SDS011;26812;42.662;23.352;2023-02-11T06:53:09;28.95;;;17.60;;
41061;SDS011;26812;42.662;23.352;2023-02-11T06:55:34;24.48;;;16.35;;
41061;SDS011;26812;42.662;23.352;2023-02-11T06:58:00;25.77;;;14.63;;
41061;SDS011;26812;42.662;23.352;2023-02-11T07:00:25;25.08;;;15.63;;
41061;SDS011;26812;42.662;23.352;2023-02-11T07:02:55;19.05;;;14.43;;
41061;SDS011;26812;42.662;23.352;2023-02-11T07:05:21;27.45;;;15.82;;
41061;SDS011;26812;42.662;23.352;2023-02-11T07:07:46;24.92;;;16.20;;
41061;SDS011;26812;42.662;23.352;2023-02-11T07:10:12;22.40;;;14.38;;
41061;SDS011;26812;42.662;23.352;2023-02-11T07:12:37;21.15;;;14.35;;
41061;SDS011;26812;42.662;23.352;2023-02-11T07:15:03;22.55;;;14.27;;
41061;SDS011;26812;42.662;23.352;2023-02-11T07:17:29;23.80;;;15.45;;
41061;SDS011;26812;42.662;23.352;2023-02-11T07:19:54;22.65;;;15.30;;
41061;SDS011;26812;42.662;23.352;2023-02-11T07:22:20;22.95;;;15.75;;
41061;SDS011;26812;42.662;23.352;2023-02-11T07:24:45;24.48;;;15.52;;
41061;SDS011;26812;42.662;23.352;2023-02-11T07:27:11;26.33;;;16.90;;
41061;SDS011;26812;42.662;23.352;2023-02-11T07:29:36;21.40;;;13.90;;
41061;SDS011;26812;42.662;23.352;2023-02-11T07:32:02;26.73;;;15.07;;
41061;SDS011;26812;42.662;23.352;2023-02-11T07:34:27;25.88;;;15.95;;
41061;SDS011;26812;42.662;23.352;2023-02-11T07:36:53;26.13;;;15.65;;
41061;SDS011;26812;42.662;23.352;2023-02-11T07:39:18;20.05;;;15.00;;
41061;SDS011;26812;42.662;23.352;2023-02-11T07:41:45;29.42;;;16.00;;
41061;SDS011;26812;42.662;23.352;2023-02-11T07:44:13;23.58;;;15.52;;
41061;SDS011;26812;42.662;23.352;2023-02-11T07:46:39;24.63;;;16.10;;
41061;SDS011;26812;42.662;23.352;2023-02-11T07:49:08;23.70;;;14.82;;
41061;SDS011;26812;42.662;23.352;2023-02-11T07:51:34;22.27;;;15.65;;
41061;SDS011;26812;42.662;23.352;2023-02-11T07:53:59;20.48;;;14.95;;
41061;SDS011;26812;42.662;23.352;2023-02-11T07:56:25;28.00;;;17.10;;
41061;SDS011;26812;42.662;23.352;2023-02-11T07:58:51;25.80;;;16.67;;
41061;SDS011;26812;42.662;23.352;2023-02-11T08:01:19;22.27;;;16.15;;
41061;SDS011;26812;42.662;23.352;2023-02-11T08:03:48;24.02;;;16.48;;
41061;SDS011;26812;42.662;23.352;2023-02-11T08:06:16;22.40;;;15.93;;
41061;SDS011;26812;42.662;23.352;2023-02-11T08:08:42;24.63;;;18.45;;
41061;SDS011;26812;42.662;23.352;2023-02-11T08:11:10;25.15;;;15.82;;
41061;SDS011;26812;42.662;23.352;2023-02-11T08:13:54;21.90;;;14.52;;
41061;SDS011;26812;42.662;23.352;2023-02-11T08:16:21;21.63;;;15.05;;
41061;SDS011;26812;42.662;23.352;2023-02-11T08:18:49;25.38;;;16.13;;
41061;SDS011;26812;42.662;23.352;2023-02-11T08:21:16;22.10;;;15.05;;
41061;SDS011;26812;42.662;23.352;2023-02-11T08:23:42;23.75;;;15.00;;
41061;SDS011;26812;42.662;23.352;2023-02-11T08:26:10;27.00;;;15.73;;
41061;SDS011;26812;42.662;23.352;2023-02-11T08:28:47;22.35;;;14.75;;
41061;SDS011;26812;42.662;23.352;2023-02-11T08:46:37;27.33;;;16.95;;
41061;SDS011;26812;42.662;23.352;2023-02-11T08:49:09;24.67;;;17.63;;
41061;SDS011;26812;42.662;23.352;2023-02-11T09:04:29;23.55;;;17.80;;
41061;SDS011;26812;42.662;23.352;2023-02-11T09:07:01;25.85;;;17.92;;
41061;SDS011;26812;42.662;23.352;2023-02-11T09:09:26;24.05;;;16.85;;
41061;SDS011;26812;42.662;23.352;2023-02-11T09:11:51;25.52;;;16.70;;
41061;SDS011;26812;42.662;23.352;2023-02-11T09:14:21;25.48;;;16.73;;
41061;SDS011;26812;42.662;23.352;2023-02-11T09:16:47;25.17;;;17.08;;
41061;SDS011;26812;42.662;23.352;2023-02-11T09:19:13;25.40;;;14.77;;
41061;SDS011;26812;42.662;23.352;2023-02-11T09:21:39;22.83;;;16.33;;
41061;SDS011;26812;42.662;23.352;2023-02-11T09:24:05;21.35;;;14.57;;
41061;SDS011;26812;42.662;23.352;2023-02-11T09:39:55;23.55;;;14.45;;
41061;SDS011;26812;42.662;23.352;2023-02-11T09:45:07;20.20;;;13.80;;
41061;SDS011;26812;42.662;23.352;2023-02-11T09:58:23;18.13;;;13.77;;
41061;SDS011;26812;42.662;23.352;2023-02-11T10:04:24;26.50;;;16.70;;
41061;SDS011;26812;42.662;23.352;2023-02-11T10:06:56;21.13;;;14.35;;
41061;SDS011;26812;42.662;23.352;2023-02-11T10:14:48;21.48;;;13.88;;
41061;SDS011;26812;42.662;23.352;2023-02-11T10:18:27;18.95;;;13.25;;
41061;SDS011;26812;42.662;23.352;2023-02-11T10:23:24;19.55;;;13.75;;
41061;SDS011;26812;42.662;23.352;2023-02-11T10:25:51;19.10;;;13.43;;
41061;SDS011;26812;42.662;23.352;2023-02-11T10:28:21;20.23;;;13.75;;
41061;SDS011;26812;42.662;23.352;2023-02-11T10:36:15;17.25;;;11.80;;
41061;SDS011;26812;42.662;23.352;2023-02-11T10:38:42;17.15;;;11.75;;
41061;SDS011;26812;42.662;23.352;2023-02-11T10:41:09;18.33;;;12.70;;
41061;SDS011;26812;42.662;23.352;2023-02-11T10:43:41;17.30;;;12.55;;
41061;SDS011;26812;42.662;23.352;2023-02-11T10:46:09;16.33;;;12.32;;
41061;SDS011;26812;42.662;23.352;2023-02-11T10:48:49;13.95;;;11.00;;
41061;SDS011;26812;42.662;23.352;2023-02-11T10:51:18;17.35;;;12.65;;
41061;SDS011;26812;42.662;23.352;2023-02-11T10:54:08;17.25;;;11.75;;
41061;SDS011;26812;42.662;23.352;2023-02-11T10:56:49;15.02;;;11.55;;
41061;SDS011;26812;42.662;23.352;2023-02-11T11:06:57;16.17;;;11.82;;
41061;SDS011;26812;42.662;23.352;2023-02-11T11:09:49;16.52;;;11.45;;
41061;SDS011;26812;42.662;23.352;2023-02-11T11:12:31;15.35;;;10.20;;
41061;SDS011;26812;42.662;23.352;2023-02-11T11:17:37;16.17;;;10.52;;
41061;SDS011;26812;42.662;23.352;2023-02-11T11:20:12;15.63;;;10.70;;
41061;SDS011;26812;42.662;23.352;2023-02-11T11:22:47;19.27;;;12.18;;
41061;SDS011;26812;42.662;23.352;2023-02-11T11:27:52;17.00;;;11.10;;
41061;SDS011;26812;42.662;23.352;2023-02-11T11:30:20;17.67;;;11.35;;
41061;SDS011;26812;42.662;23.352;2023-02-11T11:32:49;16.40;;;11.48;;
41061;SDS011;26812;42.662;23.352;2023-02-11T11:35:25;16.13;;;10.27;;
41061;SDS011;26812;42.662;23.352;2023-02-11T11:37:53;17.02;;;10.60;;
41061;SDS011;26812;42.662;23.352;2023-02-11T11:40:24;17.40;;;10.52;;
41061;SDS011;26812;42.662;23.352;2023-02-11T11:45:36;11.45;;;8.40;;
41061;SDS011;26812;42.662;23.352;2023-02-11T11:50:46;13.85;;;10.13;;
41061;SDS011;26812;42.662;23.352;2023-02-11T11:53:23;15.98;;;10.15;;
41061;SDS011;26812;42.662;23.352;2023-02-11T11:56:02;12.70;;;10.05;;
41061;SDS011;26812;42.662;23.352;2023-02-11T11:58:31;13.25;;;8.98;;
41061;SDS011;26812;42.662;23.352;2023-02-11T12:17:24;12.82;;;9.50;;
41061;SDS011;26812;42.662;23.352;2023-02-11T12:22:54;11.45;;;9.25;;
41061;SDS011;26812;42.662;23.352;2023-02-11T12:47:19;11.75;;;8.57;;
41061;SDS011;26812;42.662;23.352;2023-02-11T12:49:58;12.55;;;8.40;;
41061;SDS011;26812;42.662;23.352;2023-02-11T12:55:14;11.63;;;8.60;;
41061;SDS011;26812;42.662;23.352;2023-02-11T12:57:45;13.65;;;8.38;;
41061;SDS011;26812;42.662;23.352;2023-02-11T13:00:24;11.85;;;7.93;;
41061;SDS011;26812;42.662;23.352;2023-02-11T13:03:03;11.15;;;8.38;;
41061;SDS011;26812;42.662;23.352;2023-02-11T13:05:37;12.38;;;7.65;;
41061;SDS011;26812;42.662;23.352;2023-02-11T13:08:18;12.00;;;8.85;;
41061;SDS011;26812;42.662;23.352;2023-02-11T13:10:51;10.68;;;7.85;;
41061;SDS011;26812;42.662;23.352;2023-02-11T13:13:24;12.52;;;8.73;;
41061;SDS011;26812;42.662;23.352;2023-02-11T13:15:58;11.57;;;8.33;;
41061;SDS011;26812;42.662;23.352;2023-02-11T13:24:22;12.52;;;8.05;;
41061;SDS011;26812;42.662;23.352;2023-02-11T13:27:02;12.75;;;8.52;;
41061;SDS011;26812;42.662;23.352;2023-02-11T13:35:39;13.40;;;7.97;;
41061;SDS011;26812;42.662;23.352;2023-02-11T13:40:41;10.63;;;7.95;;
41061;SDS011;26812;42.662;23.352;2023-02-11T13:43:20;10.55;;;8.43;;
41061;SDS011;26812;42.662;23.352;2023-02-11T13:45:48;11.23;;;7.47;;
41061;SDS011;26812;42.662;23.352;2023-02-11T13:50:51;17.23;;;7.90;;
41061;SDS011;26812;42.662;23.352;2023-02-11T13:53:19;11.25;;;8.18;;
41061;SDS011;26812;42.662;23.352;2023-02-11T13:55:47;10.25;;;7.65;;
41061;SDS011;26812;42.662;23.352;2023-02-11T14:00:53;9.73;;;6.57;;
41061;SDS011;26812;42.662;23.352;2023-02-11T14:22:11;11.15;;;7.72;;
41061;SDS011;26812;42.662;23.352;2023-02-11T14:25:03;10.70;;;7.43;;
41061;SDS011;26812;42.662;23.352;2023-02-11T14:27:40;12.80;;;8.50;;
41061;SDS011;26812;42.662;23.352;2023-02-11T14:30:33;13.05;;;9.55;;
41061;SDS011;26812;42.662;23.352;2023-02-11T14:35:42;17.13;;;7.82;;
41061;SDS011;26812;42.662;23.352;2023-02-11T14:41:11;14.27;;;8.80;;
41061;SDS011;26812;42.662;23.352;2023-02-11T14:46:49;11.27;;;8.30;;
41061;SDS011;26812;42.662;23.352;2023-02-11T14:49:26;14.82;;;8.90;;
41061;SDS011;26812;42.662;23.352;2023-02-11T14:51:57;13.90;;;9.13;;
41061;SDS011;26812;42.662;23.352;2023-02-11T14:54:28;12.13;;;8.55;;
41061;SDS011;26812;42.662;23.352;2023-02-11T14:57:04;12.15;;;8.73;;
41061;SDS011;26812;42.662;23.352;2023-02-11T14:59:38;13.13;;;9.15;;
41061;SDS011;26812;42.662;23.352;2023-02-11T15:02:26;11.75;;;9.18;;
41061;SDS011;26812;42.662;23.352;2023-02-11T15:04:54;14.50;;;9.18;;
41061;SDS011;26812;42.662;23.352;2023-02-11T15:07:41;17.58;;;10.27;;
41061;SDS011;26812;42.662;23.352;2023-02-11T15:10:14;16.83;;;8.30;;
41061;SDS011;26812;42.662;23.352;2023-02-11T15:12:52;14.27;;;9.18;;
41061;SDS011;26812;42.662;23.352;2023-02-11T15:15:22;15.20;;;9.40;;
41061;SDS011;26812;42.662;23.352;2023-02-11T15:17:48;14.85;;;9.70;;
41061;SDS011;26812;42.662;23.352;2023-02-11T15:20:35;12.93;;;9.20;;
41061;SDS011;26812;42.662;23.352;2023-02-11T15:23:04;14.00;;;8.80;;
41061;SDS011;26812;42.662;23.352;2023-02-11T15:25:33;15.95;;;9.50;;
41061;SDS011;26812;42.662;23.352;2023-02-11T15:28:09;12.25;;;8.52;;
41061;SDS011;26812;42.662;23.352;2023-02-11T15:30:45;15.35;;;9.20;;
41061;SDS011;26812;42.662;23.352;2023-02-11T15:33:18;16.48;;;9.05;;
41061;SDS011;26812;42.662;23.352;2023-02-11T15:38:12;13.03;;;8.47;;
41061;SDS011;26812;42.662;23.352;2023-02-11T15:40:37;12.98;;;8.82;;
41061;SDS011;26812;42.662;23.352;2023-02-11T15:43:05;16.58;;;10.45;;
41061;SDS011;26812;42.662;23.352;2023-02-11T15:50:37;17.48;;;10.70;;
41061;SDS011;26812;42.662;23.352;2023-02-11T15:53:26;15.00;;;10.68;;
41061;SDS011;26812;42.662;23.352;2023-02-11T15:56:02;17.92;;;10.43;;
41061;SDS011;26812;42.662;23.352;2023-02-11T15:58:37;15.40;;;10.20;;
41061;SDS011;26812;42.662;23.352;2023-02-11T16:01:05;19.08;;;11.45;;
41061;SDS011;26812;42.662;23.352;2023-02-11T16:03:32;16.02;;;10.82;;
41061;SDS011;26812;42.662;23.352;2023-02-11T16:06:42;16.73;;;11.07;;
41061;SDS011;26812;42.662;23.352;2023-02-11T16:11:52;15.82;;;10.85;;
41061;SDS011;26812;42.662;23.352;2023-02-11T16:14:21;16.45;;;10.93;;
41061;SDS011;26812;42.662;23.352;2023-02-11T16:19:44;18.80;;;10.85;;
41061;SDS011;26812;42.662;23.352;2023-02-11T16:22:15;18.02;;;9.95;;
41061;SDS011;26812;42.662;23.352;2023-02-11T16:24:44;19.40;;;10.48;;
41061;SDS011;26812;42.662;23.352;2023-02-11T16:27:20;18.77;;;11.32;;
41061;SDS011;26812;42.662;23.352;2023-02-11T16:29:47;16.95;;;11.30;;
41061;SDS011;26812;42.662;23.352;2023-02-11T16:32:15;17.23;;;11.27;;
41061;SDS011;26812;42.662;23.352;2023-02-11T16:34:52;14.98;;;10.32;;
41061;SDS011;26812;42.662;23.352;2023-02-11T16:37:19;14.40;;;10.07;;
41061;SDS011;26812;42.662;23.352;2023-02-11T16:39:44;17.30;;;11.10;;
41061;SDS011;26812;42.662;23.352;2023-02-11T16:42:10;13.25;;;8.68;;
41061;SDS011;26812;42.662;23.352;2023-02-11T16:44:36;13.43;;;9.57;;
41061;SDS011;26812;42.662;23.352;2023-02-11T16:47:02;13.73;;;10.38;;
41061;SDS011;26812;42.662;23.352;2023-02-11T16:49:36;16.38;;;10.32;;
41061;SDS011;26812;42.662;23.352;2023-02-11T16:52:05;15.02;;;10.75;;
41061;SDS011;26812;42.662;23.352;2023-02-11T16:54:33;13.02;;;9.35;;
41061;SDS011;26812;42.662;23.352;2023-02-11T16:56:58;15.77;;;10.68;;
41061;SDS011;26812;42.662;23.352;2023-02-11T16:59:24;15.52;;;10.63;;
41061;SDS011;26812;42.662;23.352;2023-02-11T17:01:50;14.85;;;10.68;;
41061;SDS011;26812;42.662;23.352;2023-02-11T17:04:24;16.25;;;9.55;;
41061;SDS011;26812;42.662;23.352;2023-02-11T17:06:52;15.05;;;10.27;;
41061;SDS011;26812;42.662;23.352;2023-02-11T17:09:21;15.52;;;10.38;;
41061;SDS011;26812;42.662;23.352;2023-02-11T17:11:48;15.25;;;10.40;;
41061;SDS011;26812;42.662;23.352;2023-02-11T17:14:14;15.85;;;9.70;;
41061;SDS011;26812;42.662;23.352;2023-02-11T17:16:40;13.77;;;9.95;;
41061;SDS011;26812;42.662;23.352;2023-02-11T17:19:06;19.98;;;12.43;;
41061;SDS011;26812;42.662;23.352;2023-02-11T17:21:33;16.67;;;11.13;;
41061;SDS011;26812;42.662;23.352;2023-02-11T17:23:59;14.27;;;9.90;;
41061;SDS011;26812;42.662;23.352;2023-02-11T17:26:24;18.33;;;11.43;;
41061;SDS011;26812;42.662;23.352;2023-02-11T17:28:50;20.52;;;12.38;;
41061;SDS011;26812;42.662;23.352;2023-02-11T17:31:15;19.33;;;10.63;;
41061;SDS011;26812;42.662;23.352;2023-02-11T17:33:41;17.33;;;11.65;;
41061;SDS011;26812;42.662;23.352;2023-02-11T17:36:07;19.42;;;12.45;;
41061;SDS011;26812;42.662;23.352;2023-02-11T17:38:34;14.13;;;10.48;;
41061;SDS011;26812;42.662;23.352;2023-02-11T17:41:01;18.42;;;10.10;;
41061;SDS011;26812;42.662;23.352;2023-02-11T17:43:28;14.00;;;10.48;;
41061;SDS011;26812;42.662;23.352;2023-02-11T17:45:54;14.65;;;10.25;;
41061;SDS011;26812;42.662;23.352;2023-02-11T17:48:20;18.17;;;11.05;;
41061;SDS011;26812;42.662;23.352;2023-02-11T17:50:45;14.88;;;10.35;;
41061;SDS011;26812;42.662;23.352;2023-02-11T17:53:11;19.05;;;10.77;;
41061;SDS011;26812;42.662;23.352;2023-02-11T17:55:38;15.40;;;10.02;;
41061;SDS011;26812;42.662;23.352;2023-02-11T17:58:04;13.02;;;9.57;;
41061;SDS011;26812;42.662;23.352;2023-02-11T18:00:29;18.92;;;11.10;;
41061;SDS011;26812;42.662;23.352;2023-02-11T18:02:55;20.75;;;11.00;;
41061;SDS011;26812;42.662;23.352;2023-02-11T18:05:22;17.75;;;10.68;;
41061;SDS011;26812;42.662;23.352;2023-02-11T18:07:49;16.83;;;10.98;;
41061;SDS011;26812;42.662;23.352;2023-02-11T18:10:15;15.23;;;11.05;;
41061;SDS011;26812;42.662;23.352;2023-02-11T18:12:40;16.02;;;9.95;;
41061;SDS011;26812;42.662;23.352;2023-02-11T18:15:06;14.50;;;10.68;;